Time;durP1;ratioP1;P1;durP2;ratioP2;P2;SDS_P1;SDS_P2;PMS_P1;PMS_P2;Temp;Humidity;BMP_temperature;BMP_pressure;BME280_temperature;BME280_humidity;BME280_pressure;Samples;Min_cycle;Max_cycle;Signal;HPM_P1;HPM_P2
2023/04/08 00:00:30;;;;;;;3.87;2.90;;;15.20;62.30;;;;;;5073055;28;20538;-69
2023/04/08 00:02:57;;;;;;;3.47;2.87;;;15.20;62.30;;;;;;5070502;28;20471;-69
2023/04/08 00:05:25;;;;;;;3.30;3.00;;;15.20;62.30;;;;;;5067998;28;20475;-69
2023/04/08 00:07:53;;;;;;;4.20;3.57;;;15.20;62.30;;;;;;5073232;28;20886;-69
2023/04/08 00:10:20;;;;;;;5.07;3.57;;;15.20;62.40;;;;;;5072915;28;20532;-69
2023/04/08 00:12:47;;;;;;;4.20;3.20;;;15.20;62.30;;;;;;5069835;28;20841;-69
2023/04/08 00:15:14;;;;;;;3.43;3.13;;;15.20;62.30;;;;;;5072338;28;20479;-69
2023/04/08 00:17:41;;;;;;;3.83;3.23;;;15.20;62.30;;;;;;5072951;28;20530;-70
2023/04/08 00:20:09;;;;;;;4.00;3.60;;;15.20;62.30;;;;;;5073380;28;20548;-71
2023/04/08 00:22:38;;;;;;;4.10;3.70;;;15.20;62.50;;;;;;5072679;28;20459;-70
2023/04/08 00:25:08;;;;;;;4.20;3.80;;;15.10;62.40;;;;;;5070690;28;20586;-69
2023/04/08 00:27:35;;;;;;;5.03;4.23;;;15.10;62.50;;;;;;5072836;28;20460;-70
2023/04/08 00:30:02;;;;;;;4.27;3.87;;;15.10;62.50;;;;;;5072705;28;20530;-69
2023/04/08 00:32:29;;;;;;;5.30;4.03;;;15.10;62.60;;;;;;5071917;28;20479;-69
2023/04/08 00:34:56;;;;;;;4.90;4.00;;;15.10;62.60;;;;;;5072578;28;20479;-70
2023/04/08 00:37:23;;;;;;;5.60;4.53;;;15.10;62.60;;;;;;5063684;28;20530;-69
2023/04/08 00:39:53;;;;;;;4.93;4.20;;;15.10;62.60;;;;;;5071752;28;20632;-70
2023/04/08 00:42:19;;;;;;;4.53;3.87;;;15.10;62.60;;;;;;5072157;28;20447;-69
2023/04/08 00:44:46;;;;;;;5.50;4.40;;;15.10;62.70;;;;;;5071715;28;20551;-69
2023/04/08 00:47:14;;;;;;;5.13;4.30;;;15.10;62.70;;;;;;5072151;28;20450;-69
2023/04/08 00:49:41;;;;;;;4.97;4.40;;;15.10;62.90;;;;;;5062198;28;20459;-69
2023/04/08 00:52:08;;;;;;;5.77;3.90;;;15.10;62.60;;;;;;5071437;28;20562;-69
2023/04/08 00:54:36;;;;;;;6.70;4.77;;;15.10;62.70;;;;;;5072432;28;20490;-70
2023/04/08 00:57:05;;;;;;;4.43;3.90;;;15.00;62.80;;;;;;5072086;28;20451;-69
2023/04/08 00:59:32;;;;;;;5.07;4.13;;;15.00;62.90;;;;;;5072206;28;20451;-70
2023/04/08 01:02:09;;;;;;;5.37;4.77;;;15.00;62.90;;;;;;5067583;28;20566;-70
2023/04/08 01:04:44;;;;;;;5.20;4.17;;;15.00;63.10;;;;;;5055728;28;20988;-70
2023/04/08 01:07:18;;;;;;;5.53;4.73;;;15.00;63.10;;;;;;5062372;28;20449;-69
2023/04/08 01:09:48;;;;;;;7.77;5.40;;;15.00;63.20;;;;;;5072407;28;20799;-70
2023/04/08 01:12:20;;;;;;;8.10;5.43;;;15.00;63.30;;;;;;5070409;28;20542;-70
2023/04/08 01:14:50;;;;;;;6.33;4.60;;;15.00;63.40;;;;;;5071584;28;20490;-69
2023/04/08 01:17:19;;;;;;;6.07;4.83;;;15.00;63.30;;;;;;5072654;28;20634;-70
2023/04/08 01:19:47;;;;;;;5.73;4.63;;;15.00;63.80;;;;;;5072466;28;20456;-69
2023/04/08 01:22:27;;;;;;;6.77;6.07;;;15.00;63.80;;;;;;5071562;28;20565;-69
2023/04/08 01:25:01;;;;;;;6.13;5.53;;;15.00;63.90;;;;;;5068956;28;20495;-70
2023/04/08 01:27:31;;;;;;;6.87;5.87;;;15.00;63.80;;;;;;5072148;28;20797;-70
2023/04/08 01:29:59;;;;;;;7.10;5.67;;;15.00;63.80;;;;;;5073703;28;20591;-70
2023/04/08 01:32:27;;;;;;;7.87;5.97;;;15.00;63.90;;;;;;5071153;28;20475;-70
2023/04/08 01:34:56;;;;;;;6.47;5.23;;;15.00;63.80;;;;;;5071246;28;21001;-70
2023/04/08 01:37:25;;;;;;;6.30;5.70;;;14.90;63.90;;;;;;5069261;28;20487;-69
2023/04/08 01:39:54;;;;;;;6.53;5.40;;;15.00;64.10;;;;;;5071141;28;20465;-70
2023/04/08 01:42:22;;;;;;;6.67;4.93;;;15.00;64.90;;;;;;5070991;28;20497;-70
2023/04/08 01:44:51;;;;;;;6.63;4.80;;;14.90;64.10;;;;;;5071768;28;20480;-70
2023/04/08 01:47:22;;;;;;;7.43;5.50;;;14.90;64.10;;;;;;5070980;28;20558;-70
2023/04/08 01:49:50;;;;;;;5.53;4.93;;;14.90;64.00;;;;;;5069473;28;20831;-70
2023/04/08 01:52:19;;;;;;;5.90;5.20;;;14.90;64.10;;;;;;5070181;28;20457;-70
2023/04/08 01:54:47;;;;;;;6.87;5.23;;;14.90;64.10;;;;;;5070727;28;20487;-70
2023/04/08 01:57:19;;;;;;;6.50;5.23;;;14.90;64.20;;;;;;5069818;28;20450;-70
2023/04/08 01:59:51;;;;;;;8.63;5.73;;;14.90;64.30;;;;;;5067143;28;20456;-70
2023/04/08 02:02:21;;;;;;;6.33;5.20;;;14.90;64.30;;;;;;5068721;28;20835;-70
2023/04/08 02:04:48;;;;;;;6.50;5.23;;;14.80;64.10;;;;;;5070654;28;20444;-70
2023/04/08 02:07:16;;;;;;;7.77;5.77;;;14.90;64.20;;;;;;5070107;28;20475;-69
2023/04/08 02:09:42;;;;;;;7.50;6.20;;;14.90;64.20;;;;;;5067608;28;20840;-69
2023/04/08 02:12:09;;;;;;;6.50;5.30;;;14.80;64.10;;;;;;5065081;28;20460;-69
2023/04/08 02:14:37;;;;;;;6.53;5.37;;;14.90;64.40;;;;;;5070523;28;20517;-69
2023/04/08 02:17:11;;;;;;;7.67;5.90;;;14.90;64.50;;;;;;5070675;28;20535;-69
2023/04/08 02:19:44;;;;;;;7.23;6.20;;;14.80;64.50;;;;;;5056899;28;20451;-70
2023/04/08 02:22:17;;;;;;;7.07;6.00;;;14.80;65.40;;;;;;5069669;28;20455;-70
2023/04/08 02:24:45;;;;;;;7.93;6.17;;;14.80;64.50;;;;;;5066356;28;20460;-70
2023/04/08 02:27:13;;;;;;;7.17;6.20;;;14.80;64.50;;;;;;5070190;28;20559;-69
2023/04/08 02:29:41;;;;;;;8.17;6.03;;;14.80;64.60;;;;;;5070373;28;20497;-69
2023/04/08 02:32:11;;;;;;;8.10;6.03;;;14.80;64.80;;;;;;5069955;28;20490;-69
2023/04/08 02:34:40;;;;;;;6.53;5.53;;;14.80;64.80;;;;;;5070078;28;20478;-69
2023/04/08 02:37:08;;;;;;;7.80;5.73;;;14.80;64.70;;;;;;5059055;28;20488;-69
2023/04/08 02:39:35;;;;;;;8.30;6.07;;;14.80;64.80;;;;;;5069522;28;20503;-68
2023/04/08 02:42:03;;;;;;;9.17;6.80;;;14.80;64.80;;;;;;5070016;28;21179;-70
2023/04/08 02:44:30;;;;;;;7.50;5.83;;;14.70;64.80;;;;;;5069553;28;20443;-70
2023/04/08 02:46:57;;;;;;;6.63;5.40;;;14.70;64.90;;;;;;5070769;28;20447;-71
2023/04/08 02:49:25;;;;;;;7.10;6.10;;;14.70;64.80;;;;;;5069392;28;20548;-70
2023/04/08 02:51:52;;;;;;;9.57;6.47;;;14.70;64.90;;;;;;5073052;28;20443;-70
2023/04/08 02:54:19;;;;;;;6.83;6.10;;;14.70;64.80;;;;;;5073561;28;20477;-70
2023/04/08 02:56:46;;;;;;;8.43;6.23;;;14.70;64.70;;;;;;5073833;28;20443;-70
2023/04/08 02:59:13;;;;;;;8.63;6.43;;;14.70;64.80;;;;;;5073789;28;20530;-70
2023/04/08 03:01:40;;;;;;;7.57;6.47;;;14.70;64.90;;;;;;5061937;28;20464;-70
2023/04/08 03:04:07;;;;;;;8.43;6.93;;;14.70;64.80;;;;;;5057022;28;20550;-69
2023/04/08 03:06:35;;;;;;;9.90;7.17;;;14.70;64.90;;;;;;5073749;28;20439;-70
2023/04/08 03:09:02;;;;;;;7.10;6.17;;;14.70;64.90;;;;;;5073031;28;20935;-69
2023/04/08 03:11:29;;;;;;;8.80;6.17;;;14.70;65.00;;;;;;5072922;28;20850;-69
2023/04/08 03:13:56;;;;;;;7.30;6.43;;;14.70;65.10;;;;;;5065366;28;20549;-69
2023/04/08 03:16:23;;;;;;;7.87;5.90;;;14.70;65.10;;;;;;5073356;28;20850;-69
2023/04/08 03:18:50;;;;;;;9.57;6.70;;;14.70;65.20;;;;;;5073032;28;20538;-70
2023/04/08 03:21:17;;;;;;;7.13;6.23;;;14.60;65.20;;;;;;5072635;28;20451;-70
2023/04/08 03:23:45;;;;;;;8.50;5.97;;;14.70;65.30;;;;;;5072624;28;20984;-70
2023/04/08 03:26:12;;;;;;;7.60;5.93;;;14.70;65.20;;;;;;5068044;28;20546;-70
2023/04/08 03:28:39;;;;;;;7.50;5.80;;;14.70;65.50;;;;;;5072822;28;20453;-70
2023/04/08 03:31:06;;;;;;;8.77;6.50;;;14.70;65.70;;;;;;5072901;28;20455;-70
2023/04/08 03:33:33;;;;;;;6.43;5.50;;;14.70;65.70;;;;;;5073068;28;20451;-69
2023/04/08 03:35:59;;;;;;;7.77;6.10;;;14.70;65.70;;;;;;5072637;28;21206;-69
2023/04/08 03:38:26;;;;;;;7.67;6.47;;;14.70;65.70;;;;;;5069089;28;20547;-70
2023/04/08 03:40:55;;;;;;;8.77;6.83;;;14.70;65.70;;;;;;5072433;28;20874;-69
2023/04/08 03:43:21;;;;;;;8.27;7.37;;;14.60;65.60;;;;;;5072295;28;20483;-69
2023/04/08 03:45:48;;;;;;;9.40;7.57;;;14.60;65.30;;;;;;5072244;28;20872;-69
2023/04/08 03:48:15;;;;;;;8.20;6.93;;;14.60;65.20;;;;;;5072726;28;21188;-69
2023/04/08 03:50:42;;;;;;;8.53;6.90;;;14.60;65.20;;;;;;5067996;28;20465;-69
2023/04/08 03:53:11;;;;;;;8.63;7.47;;;14.50;65.10;;;;;;5072012;28;20487;-69
2023/04/08 03:55:38;;;;;;;9.30;7.17;;;14.50;65.20;;;;;;5072746;28;21016;-70
2023/04/08 03:58:07;;;;;;;8.03;7.07;;;14.50;65.20;;;;;;5071372;28;21179;-69
2023/04/08 04:00:33;;;;;;;7.77;6.30;;;14.50;65.20;;;;;;5069190;28;20448;-69
2023/04/08 04:03:00;;;;;;;9.40;7.53;;;14.50;65.20;;;;;;5066138;28;20474;-69
2023/04/08 04:05:27;;;;;;;9.07;6.87;;;14.40;66.00;;;;;;5071652;28;20458;-70
2023/04/08 04:07:54;;;;;;;8.40;6.63;;;14.40;65.20;;;;;;5072089;28;20954;-70
2023/04/08 04:10:21;;;;;;;8.40;6.73;;;14.30;65.20;;;;;;5071940;28;20439;-70
2023/04/08 04:12:49;;;;;;;9.03;6.37;;;14.30;65.20;;;;;;5068185;28;20487;-69
2023/04/08 04:15:18;;;;;;;9.80;6.83;;;14.20;65.20;;;;;;5069006;28;20570;-69
2023/04/08 04:17:44;;;;;;;8.03;6.60;;;14.20;65.30;;;;;;5072125;28;21123;-70
2023/04/08 04:20:12;;;;;;;8.17;6.80;;;14.10;65.40;;;;;;5072280;28;20457;-69
2023/04/08 04:22:39;;;;;;;8.60;6.80;;;14.10;65.70;;;;;;5071857;28;20833;-69
2023/04/08 04:25:07;;;;;;;9.83;7.13;;;14.10;66.00;;;;;;5070059;28;20886;-70
2023/04/08 04:27:34;;;;;;;8.90;6.70;;;14.10;66.40;;;;;;5072151;28;21005;-69
2023/04/08 04:30:01;;;;;;;9.83;7.53;;;14.00;66.30;;;;;;5070933;28;20682;-70
2023/04/08 04:32:29;;;;;;;9.17;7.20;;;14.00;66.30;;;;;;5066777;28;20558;-69
2023/04/08 04:34:56;;;;;;;8.30;6.00;;;14.00;66.50;;;;;;5070091;28;20479;-69
2023/04/08 04:37:23;;;;;;;8.33;6.10;;;14.00;66.90;;;;;;5070756;28;20463;-70
2023/04/08 04:39:50;;;;;;;9.33;6.87;;;14.00;67.10;;;;;;5071792;28;20454;-70
2023/04/08 04:42:17;;;;;;;9.07;6.97;;;14.00;67.20;;;;;;5071737;28;20869;-69
2023/04/08 04:44:45;;;;;;;9.07;6.90;;;14.00;68.20;;;;;;5071423;28;20972;-69
2023/04/08 04:47:12;;;;;;;10.27;7.43;;;14.00;67.30;;;;;;5067205;28;20456;-71
2023/04/08 04:49:40;;;;;;;8.90;7.50;;;14.00;67.50;;;;;;5057176;28;20804;-70
2023/04/08 04:52:07;;;;;;;13.90;8.60;;;14.00;67.70;;;;;;5070780;28;20447;-69
2023/04/08 04:54:34;;;;;;;11.97;8.47;;;14.00;67.60;;;;;;5071424;28;20915;-70
2023/04/08 04:57:01;;;;;;;8.80;6.67;;;14.00;67.60;;;;;;5071413;28;20451;-69
2023/04/08 04:59:28;;;;;;;9.63;7.00;;;14.00;67.80;;;;;;5071132;28;20443;-71
2023/04/08 05:01:56;;;;;;;8.23;6.87;;;14.00;67.80;;;;;;5060006;28;20862;-70
2023/04/08 05:04:23;;;;;;;10.43;7.63;;;14.00;67.90;;;;;;5071754;28;20534;-71
2023/04/08 05:06:51;;;;;;;9.23;7.73;;;14.00;67.80;;;;;;5070777;28;20453;-70
2023/04/08 05:09:18;;;;;;;8.03;7.03;;;14.00;67.90;;;;;;5070693;28;20534;-70
2023/04/08 05:11:45;;;;;;;11.10;8.20;;;14.00;67.90;;;;;;5069917;28;20524;-70
2023/04/08 05:14:12;;;;;;;10.43;7.83;;;14.00;68.00;;;;;;5069840;28;20551;-70
2023/04/08 05:16:39;;;;;;;10.90;8.37;;;14.00;67.90;;;;;;5071167;28;20479;-70
2023/04/08 05:19:06;;;;;;;13.03;9.43;;;14.00;67.90;;;;;;5070404;28;20475;-69
2023/04/08 05:21:33;;;;;;;13.57;10.53;;;14.00;67.70;;;;;;5070767;28;20451;-70
2023/04/08 05:24:01;;;;;;;13.13;9.57;;;14.00;67.70;;;;;;5068566;28;20459;-70
2023/04/08 05:26:28;;;;;;;13.00;9.87;;;14.00;67.80;;;;;;5070847;28;20526;-70
2023/04/08 05:28:55;;;;;;;13.23;10.13;;;14.00;67.70;;;;;;5070380;28;20458;-70
2023/04/08 05:31:22;;;;;;;13.70;10.03;;;14.00;67.70;;;;;;5070697;28;20482;-70
2023/04/08 05:33:48;;;;;;;13.50;9.27;;;14.10;67.80;;;;;;5070366;28;20545;-70
2023/04/08 05:36:15;;;;;;;12.43;9.53;;;14.10;67.90;;;;;;5066339;28;20569;-70
2023/04/08 05:38:43;;;;;;;12.07;9.13;;;14.10;67.80;;;;;;5070783;28;20554;-69
2023/04/08 05:41:11;;;;;;;13.07;9.37;;;14.10;67.90;;;;;;5070677;28;20570;-70
2023/04/08 05:43:38;;;;;;;12.77;9.97;;;14.10;68.00;;;;;;5070766;28;20451;-69
2023/04/08 05:46:09;;;;;;;11.80;8.73;;;14.10;67.90;;;;;;5070927;28;20467;-70
2023/04/08 05:48:36;;;;;;;16.73;9.90;;;14.20;67.90;;;;;;5068926;28;20568;-71
2023/04/08 05:51:03;;;;;;;12.37;9.60;;;14.20;67.60;;;;;;5070453;28;20447;-71
2023/04/08 05:53:30;;;;;;;16.37;9.83;;;14.20;67.60;;;;;;5070146;28;20447;-71
2023/04/08 05:55:57;;;;;;;14.27;10.70;;;14.20;67.60;;;;;;5070535;28;20800;-71
2023/04/08 05:58:25;;;;;;;15.57;10.53;;;14.20;67.80;;;;;;5070283;28;20455;-70
2023/04/08 06:00:54;;;;;;;12.53;9.53;;;14.20;67.90;;;;;;5067646;28;20463;-70
2023/04/08 06:03:21;;;;;;;13.17;9.53;;;14.20;67.90;;;;;;5069687;28;20479;-70
2023/04/08 06:05:47;;;;;;;13.53;10.30;;;14.20;67.90;;;;;;5070464;28;20803;-70
2023/04/08 06:08:15;;;;;;;12.90;10.07;;;14.20;68.00;;;;;;5070498;28;20793;-70
2023/04/08 06:10:48;;;;;;;12.50;10.03;;;14.30;68.10;;;;;;5069836;28;20951;-70
2023/04/08 06:13:15;;;;;;;13.93;10.50;;;14.30;68.30;;;;;;5063280;28;20855;-70
2023/04/08 06:15:44;;;;;;;16.93;10.70;;;14.30;68.20;;;;;;5069950;28;20486;-69
2023/04/08 06:18:10;;;;;;;13.33;9.30;;;14.30;67.90;;;;;;5069847;28;20900;-69
2023/04/08 06:20:37;;;;;;;13.67;9.90;;;14.30;67.90;;;;;;5070193;28;20535;-69
2023/04/08 06:23:04;;;;;;;15.33;10.33;;;14.40;67.70;;;;;;5072608;28;20553;-70
2023/04/08 06:25:31;;;;;;;12.43;10.20;;;14.30;67.70;;;;;;5070755;28;20458;-70
2023/04/08 06:27:58;;;;;;;12.77;9.87;;;14.40;67.70;;;;;;5074536;28;20950;-69
2023/04/08 06:30:25;;;;;;;12.30;9.30;;;14.20;67.60;;;;;;5073926;28;20872;-70
2023/04/08 06:32:53;;;;;;;12.47;10.07;;;14.30;68.00;;;;;;5073768;28;20601;-70
2023/04/08 06:35:20;;;;;;;11.60;8.80;;;14.40;68.10;;;;;;5074099;28;20493;-70
2023/04/08 06:37:47;;;;;;;11.97;9.30;;;14.40;68.00;;;;;;5071721;28;20570;-70
2023/04/08 06:40:15;;;;;;;12.87;9.57;;;14.50;68.70;;;;;;5074270;28;20455;-69
2023/04/08 06:42:43;;;;;;;13.10;9.13;;;14.60;68.00;;;;;;5074372;28;20926;-70
2023/04/08 06:45:11;;;;;;;11.67;9.07;;;14.70;68.00;;;;;;5074164;28;20459;-69
2023/04/08 06:47:38;;;;;;;13.87;9.63;;;14.70;67.70;;;;;;5060999;28;20566;-69
2023/04/08 06:50:07;;;;;;;12.73;9.17;;;14.80;67.70;;;;;;5072738;28;20455;-71
2023/04/08 06:52:34;;;;;;;13.13;9.17;;;14.80;68.50;;;;;;5073328;28;20949;-69
2023/04/08 06:55:01;;;;;;;15.33;10.30;;;14.80;67.40;;;;;;5074588;28;20475;-69
2023/04/08 06:57:28;;;;;;;13.77;10.07;;;14.90;67.30;;;;;;5066630;28;20495;-70
2023/04/08 06:59:56;;;;;;;12.47;9.83;;;15.00;67.40;;;;;;5074217;28;20584;-70
2023/04/08 07:02:23;;;;;;;13.10;9.70;;;15.00;67.40;;;;;;5066966;28;20486;-70
2023/04/08 07:04:50;;;;;;;12.03;9.80;;;15.10;67.00;;;;;;5074742;28;20521;-69
2023/04/08 07:07:19;;;;;;;11.30;8.60;;;15.10;67.60;;;;;;5074505;28;20543;-70
2023/04/08 07:09:48;;;;;;;12.77;8.67;;;15.20;66.40;;;;;;5067283;28;20537;-70
2023/04/08 07:12:15;;;;;;;11.83;8.07;;;15.30;66.20;;;;;;5071378;28;20562;-70
2023/04/08 07:14:42;;;;;;;8.97;7.00;;;15.30;66.00;;;;;;5074101;28;20879;-69
2023/04/08 07:17:09;;;;;;;9.77;7.07;;;15.30;65.80;;;;;;5074516;28;20494;-71
2023/04/08 07:19:36;;;;;;;9.23;7.37;;;15.40;65.50;;;;;;5069503;28;20551;-69
2023/04/08 07:22:03;;;;;;;8.33;7.43;;;15.40;65.40;;;;;;5068966;28;20562;-69
2023/04/08 07:24:31;;;;;;;9.43;8.37;;;15.40;65.20;;;;;;5079179;28;21028;-69
2023/04/08 07:26:58;;;;;;;10.40;8.03;;;15.50;64.90;;;;;;5074053;28;20476;-70
2023/04/08 07:29:25;;;;;;;8.70;6.90;;;15.50;64.40;;;;;;5081308;28;20548;-70
2023/04/08 07:31:52;;;;;;;8.17;6.90;;;15.50;64.40;;;;;;5072230;28;20478;-66
2023/04/08 07:34:19;;;;;;;8.60;7.23;;;15.60;64.20;;;;;;5072568;28;20530;-65
2023/04/08 07:36:45;;;;;;;8.83;7.30;;;15.60;63.90;;;;;;5072843;28;20473;-65
2023/04/08 07:39:12;;;;;;;9.67;7.90;;;15.70;64.20;;;;;;5072517;28;20444;-64
2023/04/08 07:41:41;;;;;;;8.63;7.53;;;15.70;64.00;;;;;;5060906;28;20547;-65
2023/04/08 07:44:08;;;;;;;8.13;7.03;;;15.70;63.50;;;;;;5072524;28;20475;-64
2023/04/08 07:46:37;;;;;;;7.90;7.03;;;15.80;63.30;;;;;;5073184;28;20856;-64
2023/04/08 07:49:04;;;;;;;9.30;6.73;;;15.80;63.30;;;;;;5072821;28;20475;-65
2023/04/08 07:51:31;;;;;;;8.23;7.37;;;15.90;63.10;;;;;;5072663;28;20525;-65
2023/04/08 07:53:58;;;;;;;9.27;7.23;;;16.00;63.10;;;;;;5066595;28;20498;-64
2023/04/08 07:56:25;;;;;;;10.80;8.03;;;16.00;62.40;;;;;;5071884;28;20502;-64
2023/04/08 07:58:53;;;;;;;8.33;6.37;;;16.10;62.50;;;;;;5072278;28;20444;-64
2023/04/08 08:01:22;;;;;;;7.40;6.07;;;16.10;62.90;;;;;;5072465;28;20447;-66
2023/04/08 08:03:49;;;;;;;8.57;7.67;;;16.30;63.50;;;;;;5072375;28;20448;-65
2023/04/08 08:06:16;;;;;;;11.50;7.40;;;16.30;62.70;;;;;;5064239;28;20613;-65
2023/04/08 08:08:43;;;;;;;10.67;8.03;;;16.40;62.00;;;;;;5072579;28;20447;-65
2023/04/08 08:11:10;;;;;;;7.97;7.00;;;16.50;61.30;;;;;;5072461;28;20479;-66
2023/04/08 08:13:37;;;;;;;8.40;7.20;;;16.50;61.00;;;;;;5072114;28;20534;-64
2023/04/08 08:16:07;;;;;;;10.93;8.57;;;16.60;61.60;;;;;;5071834;28;20879;-64
2023/04/08 08:18:34;;;;;;;9.57;8.37;;;16.70;61.60;;;;;;5071047;28;20574;-64
2023/04/08 08:21:02;;;;;;;10.47;8.33;;;16.70;61.80;;;;;;5072643;28;20524;-64
2023/04/08 08:23:28;;;;;;;8.53;7.40;;;16.80;61.40;;;;;;5071696;28;20462;-65
2023/04/08 08:26:00;;;;;;;10.27;8.60;;;16.90;61.60;;;;;;5068462;28;20485;-64
2023/04/08 08:28:27;;;;;;;9.40;7.80;;;17.00;60.80;;;;;;5071841;28;20474;-64
2023/04/08 08:30:54;;;;;;;14.27;7.93;;;17.10;60.40;;;;;;5055107;28;20559;-63
2023/04/08 08:33:23;;;;;;;9.13;8.23;;;17.20;60.50;;;;;;5069680;28;20498;-64
2023/04/08 08:35:50;;;;;;;9.57;8.47;;;17.40;59.50;;;;;;5072058;28;20531;-63
2023/04/08 08:38:17;;;;;;;8.93;8.03;;;17.40;58.60;;;;;;5071680;28;20454;-63
2023/04/08 08:40:44;;;;;;;8.93;8.03;;;17.50;58.80;;;;;;5071622;28;20463;-63
2023/04/08 08:43:11;;;;;;;8.03;7.23;;;17.50;58.10;;;;;;5059686;28;20555;-64
2023/04/08 08:45:48;;;;;;;7.80;7.10;;;17.60;58.30;;;;;;5071481;28;20541;-63
2023/04/08 08:48:14;;;;;;;9.03;7.10;;;17.60;57.40;;;;;;5071376;28;20993;-64
2023/04/08 08:50:43;;;;;;;7.77;6.97;;;17.70;57.50;;;;;;5071267;28;20450;-64
2023/04/08 08:53:10;;;;;;;9.07;7.60;;;17.80;57.80;;;;;;5066536;28;20883;-64
2023/04/08 08:55:37;;;;;;;8.27;7.20;;;17.80;57.00;;;;;;5071587;28;20531;-63
2023/04/08 08:58:04;;;;;;;9.00;7.50;;;17.90;57.60;;;;;;5070943;28;20582;-63
2023/04/08 09:00:32;;;;;;;7.50;6.77;;;17.90;57.80;;;;;;5071319;28;20452;-63
2023/04/08 09:03:15;;;;;;;7.40;6.47;;;18.00;57.10;;;;;;5071643;28;20450;-64
2023/04/08 09:05:49;;;;;;;8.20;7.37;;;18.10;56.20;;;;;;5066657;28;20324;-64
2023/04/08 09:08:27;;;;;;;9.40;7.57;;;18.20;55.70;;;;;;5071376;28;20541;-62
2023/04/08 09:10:55;;;;;;;7.97;6.47;;;18.30;55.90;;;;;;5071613;28;20489;-63
2023/04/08 09:13:23;;;;;;;7.67;6.97;;;18.30;56.10;;;;;;5072569;28;20212;-63
2023/04/08 09:16:04;;;;;;;7.77;6.83;;;18.40;55.90;;;;;;5071818;28;20451;-64
2023/04/08 09:18:32;;;;;;;7.20;6.50;;;18.40;55.30;;;;;;5070437;28;20440;-62
2023/04/08 09:21:01;;;;;;;6.67;5.97;;;18.40;55.40;;;;;;5068447;28;20455;-64
2023/04/08 09:23:42;;;;;;;8.13;6.90;;;18.50;55.40;;;;;;5070270;28;20507;-63
2023/04/08 09:26:10;;;;;;;7.07;6.47;;;18.60;54.80;;;;;;5070387;28;20299;-62
2023/04/08 09:28:37;;;;;;;7.63;6.00;;;18.70;55.10;;;;;;5070599;28;20946;-64
2023/04/08 09:31:21;;;;;;;6.40;5.80;;;18.80;54.70;;;;;;5067645;28;20208;-63
2023/04/08 09:33:49;;;;;;;6.73;6.03;;;18.80;53.40;;;;;;5070360;28;20197;-64
2023/04/08 09:36:17;;;;;;;7.20;6.50;;;18.90;53.90;;;;;;5070702;28;20240;-63
2023/04/08 09:38:45;;;;;;;7.80;6.23;;;18.90;53.40;;;;;;5070664;28;20201;-64
2023/04/08 09:41:15;;;;;;;7.33;6.43;;;19.00;52.70;;;;;;5069581;28;20550;-64
2023/04/08 09:43:48;;;;;;;6.10;5.53;;;19.00;52.60;;;;;;5066965;28;20201;-64
2023/04/08 09:46:17;;;;;;;14.83;7.30;;;19.00;52.60;;;;;;5070665;28;20806;-63
2023/04/08 09:48:50;;;;;;;8.43;6.40;;;19.20;52.40;;;;;;5070458;28;20443;-63
2023/04/08 09:51:22;;;;;;;8.83;6.43;;;19.40;52.90;;;;;;5070789;28;20232;-63
2023/04/08 09:53:56;;;;;;;8.47;6.83;;;19.50;51.00;;;;;;5067073;28;20212;-64
2023/04/08 09:56:24;;;;;;;7.23;6.40;;;19.50;50.60;;;;;;5049878;28;20213;-63
2023/04/08 09:58:58;;;;;;;6.97;6.33;;;19.60;50.50;;;;;;5060343;28;20663;-63
2023/04/08 10:01:32;;;;;;;6.80;6.07;;;19.60;49.60;;;;;;5059924;28;20288;-63
2023/04/08 10:04:01;;;;;;;7.50;6.80;;;19.50;48.20;;;;;;5070362;28;20243;-63
2023/04/08 10:06:31;;;;;;;7.40;6.07;;;19.50;48.30;;;;;;5069329;28;20292;-64
2023/04/08 10:08:58;;;;;;;8.63;6.60;;;19.60;48.30;;;;;;5069646;28;20204;-64
2023/04/08 10:11:26;;;;;;;7.40;6.43;;;19.60;48.20;;;;;;5070184;28;20300;-64
2023/04/08 10:13:53;;;;;;;7.23;6.13;;;19.60;47.30;;;;;;5070352;28;20220;-64
2023/04/08 10:16:23;;;;;;;6.50;5.90;;;19.60;48.00;;;;;;5070367;28;20205;-63
2023/04/08 10:18:54;;;;;;;6.80;6.20;;;19.70;48.90;;;;;;5068838;28;20208;-63
2023/04/08 10:21:36;;;;;;;7.67;6.87;;;19.90;49.10;;;;;;5070297;28;20708;-64
2023/04/08 10:24:07;;;;;;;7.77;6.97;;;20.00;48.90;;;;;;5068633;28;20201;-63
2023/04/08 10:26:36;;;;;;;7.60;6.83;;;20.10;48.00;;;;;;5070416;28;20207;-64
2023/04/08 10:29:31;;;;;;;7.70;6.90;;;20.20;47.80;;;;;;5068894;28;20849;-63
2023/04/08 10:31:58;;;;;;;8.53;6.90;;;20.30;45.10;;;;;;5069839;28;20236;-63
2023/04/08 10:34:26;;;;;;;8.10;6.70;;;20.30;46.40;;;;;;5070067;28;20209;-64
2023/04/08 10:36:57;;;;;;;7.67;6.37;;;20.30;46.40;;;;;;5070222;28;20244;-64
2023/04/08 10:39:26;;;;;;;7.00;6.07;;;20.30;46.30;;;;;;5068547;28;20270;-63
2023/04/08 10:41:53;;;;;;;7.17;6.47;;;20.30;45.10;;;;;;5067466;28;20753;-65
2023/04/08 10:44:20;;;;;;;7.90;6.87;;;20.20;45.60;;;;;;5053549;28;20284;-64
2023/04/08 10:46:48;;;;;;;7.00;5.67;;;20.20;45.50;;;;;;5070316;28;20297;-63
2023/04/08 10:49:16;;;;;;;7.60;6.70;;;20.20;45.40;;;;;;5055580;28;20229;-63
2023/04/08 10:51:43;;;;;;;7.60;6.80;;;20.10;46.00;;;;;;5060209;28;20205;-63
2023/04/08 10:54:14;;;;;;;7.67;6.87;;;20.00;46.40;;;;;;5069482;28;20205;-64
2023/04/08 10:56:48;;;;;;;8.60;6.87;;;19.90;45.80;;;;;;5070354;28;20720;-65
2023/04/08 10:59:16;;;;;;;8.30;7.40;;;19.90;45.50;;;;;;5070126;28;20303;-65
2023/04/08 11:01:45;;;;;;;8.30;6.83;;;19.80;45.60;;;;;;5070340;28;20197;-63
2023/04/08 11:04:13;;;;;;;7.63;6.93;;;19.70;45.70;;;;;;5067123;28;20206;-64
2023/04/08 11:06:41;;;;;;;8.50;7.60;;;19.70;45.80;;;;;;5059826;28;20203;-63
2023/04/08 11:09:08;;;;;;;11.27;7.03;;;19.60;45.80;;;;;;5063244;28;20287;-63
2023/04/08 11:11:36;;;;;;;8.40;7.17;;;19.50;46.40;;;;;;5073353;28;20216;-64
2023/04/08 11:14:04;;;;;;;7.87;7.07;;;19.40;45.60;;;;;;5070058;28;20197;-64
2023/04/08 11:16:31;;;;;;;7.87;7.07;;;19.40;46.30;;;;;;5061122;28;20251;-63
2023/04/08 11:18:58;;;;;;;7.43;6.73;;;19.40;46.40;;;;;;5072609;28;20299;-63
2023/04/08 11:21:28;;;;;;;7.20;6.50;;;19.30;46.00;;;;;;5073185;28;20229;-64
2023/04/08 11:23:55;;;;;;;8.27;6.97;;;19.30;45.20;;;;;;5072527;28;20223;-63
2023/04/08 11:26:23;;;;;;;7.00;6.13;;;19.20;45.20;;;;;;5073122;28;20802;-63
2023/04/08 11:28:52;;;;;;;7.70;6.83;;;19.20;45.00;;;;;;5073048;28;20201;-64
2023/04/08 11:31:19;;;;;;;8.87;6.60;;;19.10;45.10;;;;;;5070231;28;20240;-64
2023/04/08 11:33:48;;;;;;;7.17;6.47;;;19.10;45.30;;;;;;5072848;28;20197;-64
2023/04/08 11:36:15;;;;;;;7.90;6.90;;;19.00;44.00;;;;;;5072432;28;20684;-63
2023/04/08 11:38:42;;;;;;;8.07;7.27;;;18.90;43.20;;;;;;5072969;28;20839;-63
2023/04/08 11:41:10;;;;;;;7.37;6.57;;;18.80;42.70;;;;;;5072350;28;20478;-64
2023/04/08 11:43:38;;;;;;;7.73;6.70;;;18.70;42.10;;;;;;5072402;28;20209;-64
2023/04/08 11:46:21;;;;;;;9.33;7.00;;;18.70;42.50;;;;;;5072847;28;20459;-63
2023/04/08 11:49:01;;;;;;;6.77;6.13;;;18.60;41.70;;;;;;5074334;28;20554;-64
2023/04/08 11:51:28;;;;;;;7.43;6.73;;;18.60;42.10;;;;;;5072381;28;20531;-64
2023/04/08 11:53:55;;;;;;;7.73;6.93;;;18.60;43.00;;;;;;5071407;28;21128;-63
2023/04/08 11:56:23;;;;;;;9.57;7.27;;;18.60;43.70;;;;;;5072434;28;20251;-64
2023/04/08 11:58:51;;;;;;;8.67;7.47;;;18.60;44.40;;;;;;5072627;28;20483;-64
2023/04/08 12:01:18;;;;;;;7.90;7.20;;;18.70;45.20;;;;;;5072516;28;20451;-64
2023/04/08 12:04:01;;;;;;;8.43;7.13;;;18.80;44.90;;;;;;5072241;28;20527;-64
2023/04/08 12:06:30;;;;;;;8.93;6.63;;;19.00;44.50;;;;;;5065762;28;20241;-64
2023/04/08 12:08:57;;;;;;;7.03;5.87;;;19.10;43.60;;;;;;5067492;28;20942;-64
2023/04/08 12:11:24;;;;;;;7.43;6.63;;;19.20;42.90;;;;;;5072470;28;20749;-63
2023/04/08 12:13:51;;;;;;;7.40;6.40;;;19.30;42.40;;;;;;5072021;28;20275;-63
2023/04/08 12:16:19;;;;;;;7.00;6.30;;;19.30;42.60;;;;;;5072211;28;20212;-63
2023/04/08 12:18:46;;;;;;;7.83;7.03;;;19.40;42.70;;;;;;5066150;28;20221;-63
2023/04/08 12:21:14;;;;;;;7.20;6.50;;;19.30;43.10;;;;;;5071236;28;20204;-63
2023/04/08 12:23:41;;;;;;;7.23;6.53;;;19.30;43.40;;;;;;5071654;28;20209;-64
2023/04/08 12:26:08;;;;;;;6.50;5.90;;;19.30;43.60;;;;;;5071904;28;20292;-63
2023/04/08 12:28:35;;;;;;;7.13;6.43;;;19.30;43.00;;;;;;5072046;28;20292;-63
2023/04/08 12:31:02;;;;;;;7.27;6.43;;;19.30;42.60;;;;;;5052232;28;20721;-64
2023/04/08 12:33:30;;;;;;;7.47;6.60;;;19.30;42.40;;;;;;5063331;28;20253;-63
2023/04/08 12:35:58;;;;;;;7.77;6.60;;;19.30;42.80;;;;;;5071736;28;20303;-63
2023/04/08 12:38:26;;;;;;;7.13;6.23;;;19.20;42.70;;;;;;5072037;28;20580;-64
2023/04/08 12:40:54;;;;;;;7.40;6.63;;;19.30;43.30;;;;;;5069404;28;20447;-63
2023/04/08 12:43:22;;;;;;;7.93;7.13;;;19.20;43.40;;;;;;5051439;28;20237;-65
2023/04/08 12:45:49;;;;;;;8.27;7.40;;;19.20;42.10;;;;;;5070415;28;20204;-64
2023/04/08 12:48:16;;;;;;;8.93;7.20;;;19.20;41.50;;;;;;5071344;28;20240;-64